createdAt,value
2022-12-27T00:00:07.907Z,0.95
2022-12-27T00:02:37.187Z,0.80
2022-12-27T00:05:05.713Z,0.50
2022-12-27T00:07:32.075Z,1.00
2022-12-27T00:09:59.005Z,0.50
2022-12-27T00:12:25.491Z,0.40
2022-12-27T00:14:51.985Z,0.73
2022-12-27T00:17:18.319Z,0.52
2022-12-27T00:19:44.651Z,0.47
2022-12-27T00:22:11.062Z,0.55
2022-12-27T00:24:37.469Z,0.68
2022-12-27T00:27:03.922Z,0.63
2022-12-27T00:29:30.565Z,1.00
2022-12-27T00:31:57.022Z,0.40
2022-12-27T00:34:23.445Z,0.30
2022-12-27T00:36:49.801Z,0.50
2022-12-27T00:39:16.163Z,0.10
2022-12-27T00:41:42.556Z,0.50
2022-12-27T00:44:08.974Z,0.38
2022-12-27T00:46:35.484Z,0.20
2022-12-27T00:49:01.959Z,0.13
2022-12-27T00:51:28.714Z,0.47
2022-12-27T00:53:55.772Z,0.22
2022-12-27T00:56:28.287Z,0.40
2022-12-27T00:59:00.810Z,0.15
2022-12-27T01:01:29.521Z,0.30
2022-12-27T01:03:56.791Z,0.60
2022-12-27T01:06:28.766Z,0.40
2022-12-27T01:08:56.480Z,0.40
2022-12-27T01:11:23.133Z,0.20
2022-12-27T01:13:49.505Z,0.38
2022-12-27T01:16:21.872Z,0.55
2022-12-27T01:18:48.778Z,0.32
2022-12-27T01:21:17.493Z,0.40
2022-12-27T01:23:44.064Z,0.98
2022-12-27T01:26:13.357Z,0.55
2022-12-27T01:28:39.971Z,0.45
2022-12-27T01:31:08.287Z,0.43
2022-12-27T01:33:35.079Z,0.30
2022-12-27T01:36:16.827Z,0.55
2022-12-27T01:38:43.426Z,0.43
2022-12-27T01:41:34.427Z,0.22
2022-12-27T01:44:00.891Z,0.20
2022-12-27T01:46:27.826Z,0.30
2022-12-27T01:48:55.057Z,0.20
2022-12-27T01:51:21.894Z,0.38
2022-12-27T01:53:51.632Z,0.30
2022-12-27T01:56:28.197Z,0.43
2022-12-27T01:58:59.831Z,0.40
2022-12-27T02:01:43.842Z,0.28
2022-12-27T02:04:14.867Z,0.22
2022-12-27T02:06:41.606Z,0.55
2022-12-27T02:09:16.495Z,1.70
2022-12-27T02:11:51.840Z,6.68
2022-12-27T02:14:28.423Z,0.30
2022-12-27T02:16:58.039Z,0.45
2022-12-27T02:19:42.561Z,0.40
2022-12-27T02:23:15.125Z,0.30
2022-12-27T02:26:02.531Z,0.15
2022-12-27T02:28:41.094Z,0.43
2022-12-27T02:31:14.913Z,0.38
2022-12-27T02:33:45.524Z,0.40
2022-12-27T02:36:20.396Z,0.25
2022-12-27T02:38:52.002Z,0.32
2022-12-27T02:41:38.376Z,0.50
2022-12-27T02:44:23.292Z,0.60
2022-12-27T02:47:10.585Z,0.40
2022-12-27T02:49:58.563Z,0.65
2022-12-27T02:53:05.024Z,0.60
2022-12-27T02:56:22.733Z,0.73
2022-12-27T02:59:25.889Z,0.60
2022-12-27T03:02:14.029Z,0.40
2022-12-27T03:05:13.369Z,0.47
2022-12-27T03:08:03.953Z,2.10
2022-12-27T03:11:12.445Z,0.98
2022-12-27T03:14:04.950Z,0.45
2022-12-27T03:16:55.858Z,0.60
2022-12-27T03:19:59.948Z,0.90
2022-12-27T03:22:48.727Z,0.32
2022-12-27T03:25:28.573Z,0.60
2022-12-27T03:28:26.057Z,0.50
2022-12-27T03:31:16.507Z,0.55
2022-12-27T03:33:43.211Z,0.90
2022-12-27T03:36:38.784Z,0.40
2022-12-27T03:39:40.155Z,0.40
2022-12-27T03:42:31.940Z,0.50
2022-12-27T03:44:58.312Z,0.43
2022-12-27T03:47:30.443Z,0.90
2022-12-27T03:50:10.254Z,0.40
2022-12-27T03:52:42.269Z,0.32
2022-12-27T03:55:09.953Z,0.43
2022-12-27T03:57:36.729Z,1.65
2022-12-27T04:00:05.482Z,0.75
2022-12-27T04:02:32.076Z,0.20
2022-12-27T04:04:58.650Z,0.30
2022-12-27T04:07:24.993Z,0.55
2022-12-27T04:10:10.113Z,0.25
2022-12-27T04:12:54.975Z,0.50
2022-12-27T04:15:39.855Z,0.38
2022-12-27T04:18:25.094Z,0.35
2022-12-27T04:21:09.881Z,0.50
2022-12-27T04:23:54.703Z,0.55
2022-12-27T04:26:39.974Z,0.70
2022-12-27T04:29:24.881Z,0.50
2022-12-27T04:32:09.711Z,2.03
2022-12-27T04:34:44.738Z,0.60
2022-12-27T04:37:17.416Z,0.43
2022-12-27T04:40:03.816Z,0.43
2022-12-27T04:42:48.510Z,0.60
2022-12-27T04:45:33.901Z,0.60
2022-12-27T04:48:19.408Z,0.30
2022-12-27T04:51:06.122Z,0.30
2022-12-27T04:53:51.479Z,0.40
2022-12-27T04:56:17.809Z,0.60
2022-12-27T04:59:04.185Z,0.50
2022-12-27T05:01:49.407Z,0.30
2022-12-27T05:04:16.295Z,0.32
2022-12-27T05:06:42.792Z,0.50
2022-12-27T05:09:27.738Z,0.50
2022-12-27T05:12:12.584Z,0.57
2022-12-27T05:14:39.098Z,0.40
2022-12-27T05:17:05.826Z,0.50
2022-12-27T05:19:32.175Z,0.38
2022-12-27T05:22:17.382Z,0.55
2022-12-27T05:25:02.311Z,0.43
2022-12-27T05:27:28.879Z,0.50
2022-12-27T05:29:55.248Z,0.68
2022-12-27T05:32:22.732Z,0.57
2022-12-27T05:34:49.115Z,0.38
2022-12-27T05:37:15.591Z,4.18
2022-12-27T05:39:42.503Z,0.70
2022-12-27T05:42:09.056Z,0.38
2022-12-27T05:44:35.541Z,0.40
2022-12-27T05:47:02.004Z,0.63
2022-12-27T05:49:28.390Z,0.60
2022-12-27T05:51:54.788Z,0.80
2022-12-27T05:54:21.163Z,0.38
2022-12-27T05:56:47.579Z,0.50
2022-12-27T05:59:13.931Z,0.95
2022-12-27T06:01:40.382Z,0.60
2022-12-27T06:04:06.798Z,0.75
2022-12-27T06:06:34.478Z,0.65
2022-12-27T06:09:00.865Z,0.95
2022-12-27T06:11:27.218Z,0.80
2022-12-27T06:13:54.211Z,0.30
2022-12-27T06:16:22.104Z,0.55
2022-12-27T06:18:48.611Z,0.47
2022-12-27T06:21:18.271Z,0.60
2022-12-27T06:23:46.220Z,0.47
2022-12-27T06:26:21.000Z,0.68
2022-12-27T06:28:49.626Z,0.50
2022-12-27T06:31:20.433Z,0.38
2022-12-27T06:33:48.356Z,0.40
2022-12-27T06:36:17.830Z,0.32
2022-12-27T06:38:44.929Z,0.60
2022-12-27T06:41:14.008Z,0.60
2022-12-27T06:43:41.150Z,0.70
2022-12-27T06:46:16.841Z,0.73
2022-12-27T06:48:44.449Z,0.68
2022-12-27T06:51:12.375Z,0.80
2022-12-27T06:53:39.296Z,0.95
2022-12-27T06:56:07.883Z,0.35
2022-12-27T06:58:34.599Z,0.47
2022-12-27T07:01:13.064Z,0.43
2022-12-27T07:03:40.433Z,0.80
2022-12-27T07:06:09.116Z,0.70
2022-12-27T07:08:36.015Z,1.65
2022-12-27T07:11:08.417Z,1.70
2022-12-27T07:13:36.473Z,1.20
2022-12-27T07:16:11.344Z,1.15
2022-12-27T07:18:38.243Z,1.05
2022-12-27T07:21:16.814Z,0.85
2022-12-27T07:23:44.354Z,0.43
2022-12-27T07:26:30.607Z,0.93
2022-12-27T07:28:59.889Z,0.75
2022-12-27T07:31:30.530Z,2.40
2022-12-27T07:33:58.567Z,0.85
2022-12-27T07:36:28.447Z,0.90
2022-12-27T07:38:55.482Z,1.33
2022-12-27T07:41:21.939Z,0.70
2022-12-27T07:43:48.461Z,0.70
2022-12-27T07:46:20.656Z,0.70
2022-12-27T07:48:47.867Z,0.90
2022-12-27T07:51:16.160Z,0.90
2022-12-27T07:53:42.879Z,0.75
2022-12-27T07:56:20.144Z,0.68
2022-12-27T07:58:50.788Z,0.73
2022-12-27T08:01:19.861Z,1.00
2022-12-27T08:03:46.490Z,0.60
2022-12-27T08:06:31.607Z,0.82
2022-12-27T08:08:59.609Z,0.73
2022-12-27T08:11:30.021Z,1.20
2022-12-27T08:13:56.588Z,0.82
2022-12-27T08:16:25.025Z,0.88
2022-12-27T08:18:53.006Z,0.60
2022-12-27T08:21:19.351Z,1.17
2022-12-27T08:23:45.741Z,1.50
2022-12-27T08:26:12.139Z,0.80
2022-12-27T08:28:39.669Z,0.60
2022-12-27T08:31:08.913Z,0.70
2022-12-27T08:33:35.765Z,0.60
2022-12-27T08:36:22.299Z,0.73
2022-12-27T08:38:56.486Z,1.02
2022-12-27T08:41:22.922Z,0.60
2022-12-27T08:43:49.649Z,0.90
2022-12-27T08:46:16.204Z,1.70
2022-12-27T08:48:42.730Z,1.13
2022-12-27T08:51:13.122Z,0.77
2022-12-27T08:53:41.150Z,0.80
2022-12-27T08:56:07.713Z,1.17
2022-12-27T08:58:34.139Z,0.98
2022-12-27T09:01:07.997Z,0.65
2022-12-27T09:03:35.342Z,0.80
2022-12-27T09:06:12.312Z,0.90
2022-12-27T09:08:38.947Z,3.80
2022-12-27T09:11:10.631Z,1.75
2022-12-27T09:13:37.423Z,0.85
2022-12-27T09:16:15.478Z,1.67
2022-12-27T09:18:43.244Z,0.80
2022-12-27T09:21:13.043Z,0.80
2022-12-27T09:23:41.291Z,0.50
2022-12-27T09:26:09.686Z,0.77
2022-12-27T09:28:36.426Z,1.02
2022-12-27T09:31:03.787Z,1.23
2022-12-27T09:33:30.756Z,1.40
2022-12-27T09:36:14.297Z,0.82
2022-12-27T09:38:41.642Z,0.35
2022-12-27T09:41:47.667Z,1.08
2022-12-27T09:44:37.891Z,0.50
2022-12-27T09:47:20.462Z,0.73
2022-12-27T09:49:52.866Z,0.60
2022-12-27T09:52:37.323Z,0.60
2022-12-27T09:55:19.377Z,0.70
2022-12-27T09:57:47.238Z,0.60
2022-12-27T10:00:34.053Z,0.73
2022-12-27T10:03:06.046Z,0.70
2022-12-27T10:05:35.740Z,0.73
2022-12-27T10:08:20.217Z,0.60
2022-12-27T10:11:36.638Z,0.90
2022-12-27T10:14:09.079Z,1.00
2022-12-27T10:17:01.936Z,0.73
2022-12-27T10:19:50.106Z,0.73
2022-12-27T10:22:20.446Z,0.68
2022-12-27T10:24:57.046Z,0.65
2022-12-27T10:27:26.091Z,0.98
2022-12-27T10:29:57.915Z,0.68
2022-12-27T10:32:24.911Z,0.30
2022-12-27T10:35:03.030Z,0.70
2022-12-27T10:37:29.576Z,0.65
2022-12-27T10:40:00.839Z,0.50
2022-12-27T10:42:44.210Z,0.60
2022-12-27T10:45:29.743Z,0.82
2022-12-27T10:47:59.445Z,0.73
2022-12-27T10:50:28.446Z,0.70
2022-12-27T10:52:57.730Z,0.52
2022-12-27T10:55:37.290Z,0.75
2022-12-27T10:58:21.315Z,0.93
2022-12-27T11:00:56.607Z,0.50
2022-12-27T11:03:23.352Z,1.02
2022-12-27T11:06:05.678Z,1.02
2022-12-27T11:08:32.620Z,0.80
2022-12-27T11:11:31.949Z,0.85
2022-12-27T11:14:11.085Z,0.90
2022-12-27T11:16:40.318Z,0.82
2022-12-27T11:19:07.005Z,3.95
2022-12-27T11:21:38.811Z,0.98
2022-12-27T11:24:05.657Z,0.70
2022-12-27T11:26:53.528Z,0.52
2022-12-27T11:31:48.804Z,0.80
2022-12-27T11:34:16.679Z,0.70
2022-12-27T11:36:47.582Z,0.70
2022-12-27T11:39:46.542Z,0.50
2022-12-27T11:42:40.712Z,0.80
2022-12-27T11:45:17.648Z,0.90
2022-12-27T11:50:38.757Z,0.82
2022-12-27T11:53:09.942Z,1.00
2022-12-27T11:56:05.615Z,0.70
2022-12-27T11:58:53.518Z,0.52
2022-12-27T12:01:32.178Z,0.70
2022-12-27T12:04:53.048Z,0.68
2022-12-27T12:08:00.732Z,0.65
2022-12-27T12:10:36.277Z,0.60
2022-12-27T12:13:21.634Z,0.93
2022-12-27T12:16:09.604Z,0.40
2022-12-27T12:19:07.674Z,0.75
2022-12-27T12:21:40.400Z,0.55
2022-12-27T12:24:37.556Z,0.50
2022-12-27T12:27:25.133Z,1.10
2022-12-27T12:30:12.307Z,0.43
2022-12-27T12:33:09.020Z,0.85
2022-12-27T12:36:20.390Z,0.55
2022-12-27T12:38:49.713Z,0.63
2022-12-27T12:41:25.955Z,1.05
2022-12-27T12:44:11.021Z,0.52
2022-12-27T12:47:01.927Z,0.73
2022-12-27T12:49:38.349Z,0.63
2022-12-27T12:52:37.493Z,0.47
2022-12-27T12:55:38.107Z,0.75
2022-12-27T12:58:10.997Z,0.93
2022-12-27T13:01:18.701Z,0.65
2022-12-27T13:04:10.735Z,0.60
2022-12-27T13:06:58.842Z,0.50
2022-12-27T13:10:09.884Z,0.50
2022-12-27T13:15:57.978Z,0.52
2022-12-27T13:18:33.472Z,0.70
2022-12-27T13:21:11.683Z,0.52
2022-12-27T13:23:58.469Z,0.47
2022-12-27T13:26:49.764Z,0.70
2022-12-27T13:29:28.002Z,0.70
2022-12-27T13:32:09.492Z,0.60
2022-12-27T13:35:02.421Z,0.45
2022-12-27T13:38:33.563Z,0.65
2022-12-27T13:41:31.511Z,0.77
2022-12-27T13:44:16.630Z,0.60
2022-12-27T13:47:20.789Z,0.35
2022-12-27T13:50:14.726Z,0.65
2022-12-27T13:53:00.036Z,0.47
2022-12-27T13:55:51.461Z,0.43
2022-12-27T13:58:33.124Z,0.80
2022-12-27T14:01:20.817Z,0.55
2022-12-27T14:03:59.350Z,0.50
2022-12-27T14:07:07.206Z,0.65
2022-12-27T14:09:53.674Z,0.55
2022-12-27T14:12:35.825Z,0.63
2022-12-27T14:15:06.541Z,0.40
2022-12-27T14:17:52.138Z,0.55
2022-12-27T14:20:37.103Z,1.80
2022-12-27T14:23:33.801Z,0.50
2022-12-27T14:26:32.155Z,0.63
2022-12-27T14:29:24.501Z,0.88
2022-12-27T14:32:11.967Z,0.60
2022-12-27T14:34:58.911Z,1.10
2022-12-27T14:37:59.824Z,0.70
2022-12-27T14:41:06.537Z,0.60
2022-12-27T14:44:12.977Z,0.90
2022-12-27T14:47:02.747Z,0.52
2022-12-27T14:49:50.789Z,0.70
2022-12-27T14:52:29.623Z,0.63
2022-12-27T14:55:33.616Z,1.02
2022-12-27T14:58:21.832Z,1.02
2022-12-27T15:01:16.197Z,4.00
2022-12-27T15:04:01.497Z,1.58
2022-12-27T15:06:58.012Z,3.72
2022-12-27T15:10:12.670Z,4.03
2022-12-27T15:13:01.497Z,2.67
2022-12-27T15:16:02.236Z,4.30
2022-12-27T15:18:48.823Z,2.92
2022-12-27T15:21:45.762Z,4.15
2022-12-27T15:24:21.297Z,4.97
2022-12-27T15:26:57.142Z,3.85
2022-12-27T15:29:49.925Z,2.03
2022-12-27T15:32:25.916Z,3.13
2022-12-27T15:35:24.923Z,2.53
2022-12-27T15:38:12.655Z,3.00
2022-12-27T15:40:49.441Z,6.65
2022-12-27T15:43:53.535Z,8.18
2022-12-27T15:46:54.126Z,5.78
2022-12-27T15:49:28.472Z,4.78
2022-12-27T15:52:10.829Z,5.38
2022-12-27T15:54:51.861Z,2.95
2022-12-27T15:57:38.190Z,2.08
2022-12-27T16:00:27.872Z,2.05
2022-12-27T16:02:59.794Z,2.30
2022-12-27T16:05:26.248Z,2.20
2022-12-27T16:08:27.552Z,2.13
2022-12-27T16:10:55.196Z,3.03
2022-12-27T16:13:41.370Z,3.60
2022-12-27T16:16:11.849Z,1.80
2022-12-27T16:18:57.865Z,1.70
2022-12-27T16:21:35.400Z,2.22
2022-12-27T16:24:11.173Z,1.30
2022-12-27T16:26:50.275Z,1.27
2022-12-27T16:29:17.240Z,1.42
2022-12-27T16:31:50.911Z,1.63
2022-12-27T16:34:24.760Z,1.60
2022-12-27T16:36:54.381Z,2.30
2022-12-27T16:39:48.939Z,2.00
2022-12-27T16:42:18.840Z,4.85
2022-12-27T16:44:53.566Z,4.43
2022-12-27T16:48:07.646Z,4.40
2022-12-27T16:50:53.902Z,3.42
2022-12-27T16:53:43.581Z,8.95
2022-12-27T16:56:22.920Z,8.77
2022-12-27T16:58:50.216Z,4.00
2022-12-27T17:01:25.823Z,3.20
2022-12-27T17:03:53.495Z,3.88
2022-12-27T17:06:35.459Z,3.17
2022-12-27T17:09:07.856Z,3.65
2022-12-27T17:11:55.088Z,2.92
2022-12-27T17:14:31.873Z,2.63
2022-12-27T17:17:14.530Z,4.35
2022-12-27T17:20:06.277Z,2.72
2022-12-27T17:22:35.797Z,2.28
2022-12-27T17:25:03.602Z,2.17
2022-12-27T17:27:44.992Z,1.70
2022-12-27T17:30:36.407Z,1.73
2022-12-27T17:33:25.111Z,1.67
2022-12-27T17:36:15.588Z,1.50
2022-12-27T17:39:39.328Z,1.10
2022-12-27T17:42:44.774Z,1.75
2022-12-27T17:45:39.707Z,1.30
2022-12-27T17:48:13.633Z,1.10
2022-12-27T17:50:44.219Z,1.08
2022-12-27T17:53:29.392Z,3.17
2022-12-27T17:56:26.259Z,2.33
2022-12-27T17:58:58.080Z,1.77
2022-12-27T18:01:29.474Z,1.63
2022-12-27T18:03:56.243Z,1.27
2022-12-27T18:06:22.683Z,1.48
2022-12-27T18:08:50.329Z,1.40
2022-12-27T18:11:23.463Z,2.70
2022-12-27T18:13:56.567Z,5.38
2022-12-27T18:16:29.894Z,8.15
2022-12-27T18:18:59.929Z,9.02
2022-12-27T18:21:28.281Z,14.02
2022-12-27T18:23:55.508Z,15.98
2022-12-27T18:26:33.697Z,11.10
2022-12-27T18:29:00.154Z,10.43
2022-12-27T18:31:40.269Z,12.45
2022-12-27T18:34:31.317Z,7.55
2022-12-27T18:37:03.130Z,6.22
2022-12-27T18:39:32.397Z,9.40
2022-12-27T18:42:02.560Z,10.85
2022-12-27T18:44:42.549Z,8.48
2022-12-27T18:47:19.204Z,10.77
2022-12-27T18:49:45.868Z,15.15
2022-12-27T18:52:15.414Z,14.07
2022-12-27T18:54:42.881Z,13.95
2022-12-27T18:57:32.947Z,11.07
2022-12-27T19:00:14.631Z,8.07
2022-12-27T19:02:42.204Z,6.25
2022-12-27T19:05:17.366Z,11.27
2022-12-27T19:07:43.906Z,6.35
2022-12-27T19:10:17.817Z,5.28
2022-12-27T19:12:45.483Z,4.55
2022-12-27T19:15:43.478Z,6.90
2022-12-27T19:18:38.227Z,7.10
2022-12-27T19:21:06.689Z,7.05
2022-12-27T19:23:39.167Z,6.05
2022-12-27T19:26:17.749Z,8.23
2022-12-27T19:28:45.243Z,7.18
2022-12-27T19:31:21.318Z,6.45
2022-12-27T19:34:00.294Z,4.68
2022-12-27T19:36:31.625Z,4.15
2022-12-27T19:41:26.392Z,11.68
2022-12-27T19:43:53.539Z,7.20
2022-12-27T19:46:27.092Z,4.68
2022-12-27T19:49:23.609Z,4.38
2022-12-27T19:51:43.290Z,3.10
2022-12-27T19:54:16.739Z,4.43
2022-12-27T19:56:43.452Z,4.57
2022-12-27T19:59:19.343Z,3.60
2022-12-27T20:01:46.088Z,4.68
2022-12-27T20:04:13.636Z,4.07
2022-12-27T20:06:41.075Z,3.53
2022-12-27T20:09:13.714Z,4.97
2022-12-27T20:11:40.203Z,5.30
2022-12-27T20:14:06.692Z,5.28
2022-12-27T20:16:33.290Z,5.80
2022-12-27T20:18:59.754Z,5.85
2022-12-27T20:21:26.411Z,5.40
2022-12-27T20:23:52.942Z,4.40
2022-12-27T20:26:23.070Z,4.60
2022-12-27T20:28:50.541Z,5.20
2022-12-27T20:31:19.633Z,4.82
2022-12-27T20:33:50.121Z,3.50
2022-12-27T20:36:16.496Z,8.82
2022-12-27T20:38:42.961Z,6.28
2022-12-27T20:41:12.231Z,4.57
2022-12-27T20:43:38.994Z,4.00
2022-12-27T20:46:07.406Z,4.15
2022-12-27T20:48:37.639Z,4.20
2022-12-27T20:51:14.578Z,3.85
2022-12-27T20:53:41.016Z,4.72
2022-12-27T20:56:08.908Z,5.90
2022-12-27T20:58:35.865Z,5.15
2022-12-27T21:01:12.016Z,4.45
2022-12-27T21:03:39.545Z,4.22
2022-12-27T21:06:13.055Z,3.55
2022-12-27T21:08:46.585Z,4.28
2022-12-27T21:11:22.687Z,3.58
2022-12-27T21:13:49.980Z,3.53
2022-12-27T21:16:22.393Z,3.78
2022-12-27T21:18:49.639Z,3.95
2022-12-27T21:21:20.401Z,4.07
2022-12-27T21:23:47.825Z,4.28
2022-12-27T21:26:17.443Z,5.35
2022-12-27T21:28:45.517Z,5.25
2022-12-27T21:31:13.723Z,5.50
2022-12-27T21:33:40.462Z,5.18
2022-12-27T21:36:10.707Z,5.60
2022-12-27T21:38:37.857Z,5.88
2022-12-27T21:41:05.703Z,6.45
2022-12-27T21:43:33.802Z,5.90
2022-12-27T21:46:06.627Z,5.78
2022-12-27T21:48:33.186Z,5.15
2022-12-27T21:51:08.080Z,5.45
2022-12-27T21:53:34.781Z,5.18
2022-12-27T21:56:01.622Z,5.28
2022-12-27T21:58:35.940Z,5.32
2022-12-27T22:01:09.190Z,5.03
2022-12-27T22:03:37.878Z,4.88
2022-12-27T22:06:16.350Z,5.30
2022-12-27T22:08:44.219Z,4.72
2022-12-27T22:11:11.562Z,4.82
2022-12-27T22:13:38.105Z,5.28
2022-12-27T22:16:07.090Z,4.90
2022-12-27T22:18:37.740Z,4.38
2022-12-27T22:21:06.887Z,5.68
2022-12-27T22:23:37.013Z,5.20
2022-12-27T22:26:05.745Z,5.35
2022-12-27T22:28:32.220Z,5.40
2022-12-27T22:30:58.659Z,5.20
2022-12-27T22:33:25.073Z,5.22
2022-12-27T22:35:51.605Z,5.47
2022-12-27T22:38:17.980Z,5.10
2022-12-27T22:40:46.447Z,4.80
2022-12-27T22:43:13.612Z,5.38
2022-12-27T22:45:42.881Z,4.72
2022-12-27T22:48:10.361Z,5.03
2022-12-27T22:50:37.921Z,5.05
2022-12-27T22:53:04.484Z,4.53
2022-12-27T22:55:30.845Z,5.22
2022-12-27T22:57:57.226Z,4.95
2022-12-27T23:00:23.608Z,5.18
2022-12-27T23:02:50.484Z,4.85
2022-12-27T23:05:16.939Z,5.25
2022-12-27T23:08:04.547Z,5.10
2022-12-27T23:10:29.680Z,4.85
2022-12-27T23:12:56.641Z,5.75
2022-12-27T23:15:23.002Z,5.13
2022-12-27T23:17:49.391Z,5.32
2022-12-27T23:20:15.901Z,6.03
2022-12-27T23:22:42.251Z,6.20
2022-12-27T23:25:08.834Z,6.20
2022-12-27T23:27:35.192Z,6.00
2022-12-27T23:30:01.612Z,6.13
2022-12-27T23:32:27.989Z,6.45
2022-12-27T23:34:54.418Z,6.07
2022-12-27T23:37:20.815Z,5.68
2022-12-27T23:39:47.202Z,6.22
2022-12-27T23:42:13.556Z,6.07
2022-12-27T23:44:39.951Z,6.30
2022-12-27T23:47:06.498Z,6.53
2022-12-27T23:49:33.502Z,6.28
2022-12-27T23:51:59.861Z,5.45
2022-12-27T23:54:26.260Z,5.28
2022-12-27T23:56:52.617Z,6.55
2022-12-27T23:59:19.159Z,5.32
